createdAt,value
2018-07-26T00:00:38.695Z,1010.18
2018-07-26T00:02:31.635Z,1010.16
2018-07-26T00:03:31.644Z,1010.17
2018-07-26T00:05:24.596Z,1010.16
2018-07-26T00:06:24.599Z,1010.16
2018-07-26T00:08:17.522Z,1010.15
2018-07-26T00:09:17.554Z,1010.17
2018-07-26T00:11:10.503Z,1010.19
2018-07-26T00:12:10.504Z,1010.20
2018-07-26T00:14:03.435Z,1010.21
2018-07-26T00:15:03.460Z,1010.16
2018-07-26T00:16:56.404Z,1010.13
2018-07-26T00:17:56.412Z,1010.19
2018-07-26T00:19:49.339Z,1010.20
2018-07-26T00:20:49.367Z,1010.19
2018-07-26T00:22:42.318Z,1010.17
2018-07-26T00:23:42.322Z,1010.17
2018-07-26T00:25:35.274Z,1010.14
2018-07-26T00:26:35.276Z,1010.16
2018-07-26T00:28:28.366Z,1010.16
2018-07-26T00:29:28.390Z,1010.17
2018-07-26T00:31:21.330Z,1010.18
2018-07-26T00:32:21.340Z,1010.17
2018-07-26T00:34:14.261Z,1010.16
2018-07-26T00:35:14.292Z,1010.17
2018-07-26T00:37:07.232Z,1010.22
2018-07-26T00:38:07.242Z,1010.21
2018-07-26T00:40:00.171Z,1010.20
2018-07-26T00:41:00.194Z,1010.17
2018-07-26T00:42:53.137Z,1010.21
2018-07-26T00:43:53.145Z,1010.24
2018-07-26T00:45:46.089Z,1010.21
2018-07-26T00:46:46.110Z,1010.23
2018-07-26T00:48:39.053Z,1010.21
2018-07-26T00:49:39.048Z,1010.22
2018-07-26T00:51:31.993Z,1010.19
2018-07-26T00:52:32.000Z,1010.20
2018-07-26T00:54:24.927Z,1010.20
2018-07-26T00:55:24.953Z,1010.20
2018-07-26T00:57:17.896Z,1010.19
2018-07-26T00:58:17.906Z,1010.23
2018-07-26T01:00:10.829Z,1010.15
2018-07-26T01:01:10.857Z,1010.17
2018-07-26T01:03:03.800Z,1010.16
2018-07-26T01:04:03.808Z,1010.18
2018-07-26T01:05:57.245Z,1010.14
2018-07-26T01:06:57.254Z,1010.15
2018-07-26T01:08:50.178Z,1010.22
2018-07-26T01:09:50.205Z,1010.19
2018-07-26T01:11:43.156Z,1010.13
2018-07-26T01:12:43.157Z,1010.12
2018-07-26T01:14:37.080Z,1010.17
2018-07-26T01:15:37.101Z,1010.17
2018-07-26T01:17:30.088Z,1010.18
2018-07-26T01:18:30.054Z,1010.19
2018-07-26T01:20:22.974Z,1010.20
2018-07-26T01:21:23.003Z,1010.20
2018-07-26T01:23:15.945Z,1010.18
2018-07-26T01:24:15.953Z,1010.14
2018-07-26T01:26:08.898Z,1010.18
2018-07-26T01:27:08.903Z,1010.20
2018-07-26T01:29:01.824Z,1010.22
2018-07-26T01:30:01.855Z,1010.24
2018-07-26T01:31:54.995Z,1010.22
2018-07-26T01:32:55.012Z,1010.23
2018-07-26T01:34:48.132Z,1010.24
2018-07-26T01:35:48.161Z,1010.22
2018-07-26T01:37:41.105Z,1010.20
2018-07-26T01:38:41.116Z,1010.18
2018-07-26T01:40:34.035Z,1010.18
2018-07-26T01:41:34.063Z,1010.18
2018-07-26T01:43:27.002Z,1010.19
2018-07-26T01:44:27.016Z,1010.20
2018-07-26T01:46:19.958Z,1010.15
2018-07-26T01:47:19.963Z,1010.17
2018-07-26T01:49:12.885Z,1010.15
2018-07-26T01:50:12.914Z,1010.13
2018-07-26T01:52:05.851Z,1010.11
2018-07-26T01:53:05.870Z,1010.11
2018-07-26T01:54:58.781Z,1010.10
2018-07-26T01:55:58.811Z,1010.08
2018-07-26T01:57:51.757Z,1010.04
2018-07-26T01:58:51.760Z,1010.06
2018-07-26T02:00:44.682Z,1010.03
2018-07-26T02:01:44.744Z,1010.02
2018-07-26T02:03:37.655Z,1009.98
2018-07-26T02:04:37.665Z,1009.95
2018-07-26T02:06:30.612Z,1009.97
2018-07-26T02:07:30.614Z,1009.99
2018-07-26T02:09:23.537Z,1009.98
2018-07-26T02:10:23.566Z,1009.94
2018-07-26T02:12:16.509Z,1009.93
2018-07-26T02:13:16.516Z,1009.87
2018-07-26T02:15:09.439Z,1009.89
2018-07-26T02:16:09.467Z,1009.87
2018-07-26T02:18:02.408Z,1009.90
2018-07-26T02:19:02.418Z,1009.87
2018-07-26T02:20:55.338Z,1009.90
2018-07-26T02:21:55.366Z,1009.88
2018-07-26T02:23:48.314Z,1009.89
2018-07-26T02:24:48.317Z,1009.92
2018-07-26T02:26:41.267Z,1009.92
2018-07-26T02:27:41.269Z,1009.93
2018-07-26T02:29:34.356Z,1009.95
2018-07-26T02:30:34.383Z,1009.90
2018-07-26T02:32:27.329Z,1009.90
2018-07-26T02:33:27.333Z,1009.93
2018-07-26T02:35:20.258Z,1009.92
2018-07-26T02:36:20.285Z,1009.89
2018-07-26T02:38:13.226Z,1009.90
2018-07-26T02:39:13.235Z,1009.92
2018-07-26T02:41:06.156Z,1009.93
2018-07-26T02:42:06.184Z,1009.94
2018-07-26T02:43:59.127Z,1009.98
2018-07-26T02:44:59.136Z,1010.02
2018-07-26T02:46:52.076Z,1010.03
2018-07-26T02:47:52.086Z,1010.02
2018-07-26T02:49:45.010Z,1010.02
2018-07-26T02:50:45.035Z,1010.04
2018-07-26T02:52:37.979Z,1010.02
2018-07-26T02:53:37.986Z,1010.04
2018-07-26T02:55:30.908Z,1010.08
2018-07-26T02:56:30.937Z,1010.04
2018-07-26T02:58:24.037Z,1010.03
2018-07-26T02:59:24.048Z,1010.07
2018-07-26T03:01:16.973Z,1010.01
2018-07-26T03:02:16.998Z,1010.02
2018-07-26T03:04:09.942Z,1010.03
2018-07-26T03:05:09.947Z,1009.99
2018-07-26T03:07:02.902Z,1010.03
2018-07-26T03:08:02.894Z,1010.00
2018-07-26T03:09:55.814Z,1009.99
2018-07-26T03:10:55.842Z,1009.99
2018-07-26T03:12:48.783Z,1009.97
2018-07-26T03:13:48.790Z,1009.98
2018-07-26T03:15:41.711Z,1009.95
2018-07-26T03:16:41.740Z,1009.95
2018-07-26T03:18:34.688Z,1009.95
2018-07-26T03:19:34.714Z,1009.96
2018-07-26T03:21:27.616Z,1009.94
2018-07-26T03:22:27.639Z,1009.98
2018-07-26T03:24:20.812Z,1009.94
2018-07-26T03:25:20.820Z,1009.95
2018-07-26T03:27:13.766Z,1009.95
2018-07-26T03:28:13.768Z,1009.97
2018-07-26T03:30:06.691Z,1009.93
2018-07-26T03:31:06.720Z,1009.94
2018-07-26T03:32:59.660Z,1009.96
2018-07-26T03:33:59.667Z,1009.96
2018-07-26T03:35:53.153Z,1009.94
2018-07-26T03:36:53.111Z,1009.95
2018-07-26T03:38:46.052Z,1009.93
2018-07-26T03:39:46.065Z,1009.91
2018-07-26T03:41:38.984Z,1009.92
2018-07-26T03:42:39.013Z,1009.94
2018-07-26T03:44:31.954Z,1009.91
2018-07-26T03:45:31.964Z,1009.95
2018-07-26T03:47:24.900Z,1009.96
2018-07-26T03:48:24.916Z,1009.91
2018-07-26T03:50:17.828Z,1009.96
2018-07-26T03:51:17.895Z,1009.91
2018-07-26T03:53:10.799Z,1009.94
2018-07-26T03:54:10.809Z,1009.99
2018-07-26T03:56:03.729Z,1009.99
2018-07-26T03:57:03.756Z,1010.04
2018-07-26T03:58:56.700Z,1010.03
2018-07-26T03:59:56.707Z,1010.03
2018-07-26T04:01:49.627Z,1010.01
2018-07-26T04:02:49.656Z,1010.08
2018-07-26T04:04:42.599Z,1010.11
2018-07-26T04:05:42.608Z,1010.05
2018-07-26T04:07:35.552Z,1010.10
2018-07-26T04:08:35.562Z,1010.08
2018-07-26T04:10:28.482Z,1010.11
2018-07-26T04:11:28.512Z,1010.13
2018-07-26T04:13:21.450Z,1010.13
2018-07-26T04:14:21.456Z,1010.15
2018-07-26T04:16:14.389Z,1010.16
2018-07-26T04:17:14.409Z,1010.18
2018-07-26T04:19:07.352Z,1010.17
2018-07-26T04:20:07.371Z,1010.18
2018-07-26T04:22:00.432Z,1010.15
2018-07-26T04:23:00.459Z,1010.17
2018-07-26T04:24:54.395Z,1010.15
2018-07-26T04:25:54.402Z,1010.11
2018-07-26T04:27:47.348Z,1010.14
2018-07-26T04:28:47.355Z,1010.13
2018-07-26T04:30:40.273Z,1010.14
2018-07-26T04:31:40.307Z,1010.12
2018-07-26T04:33:33.245Z,1010.12
2018-07-26T04:34:33.251Z,1010.12
2018-07-26T04:36:26.176Z,1010.14
2018-07-26T04:37:26.207Z,1010.16
2018-07-26T04:39:19.151Z,1010.16
2018-07-26T04:40:19.152Z,1010.17
2018-07-26T04:42:12.078Z,1010.17
2018-07-26T04:43:12.104Z,1010.16
2018-07-26T04:45:05.047Z,1010.22
2018-07-26T04:46:05.055Z,1010.21
2018-07-26T04:47:57.973Z,1010.19
2018-07-26T04:48:58.054Z,1010.22
2018-07-26T04:50:51.164Z,1010.17
2018-07-26T04:51:51.174Z,1010.23
2018-07-26T04:53:44.162Z,1010.23
2018-07-26T04:54:44.214Z,1010.23
2018-07-26T04:56:37.046Z,1010.25
2018-07-26T04:57:37.074Z,1010.25
2018-07-26T04:59:30.021Z,1010.24
2018-07-26T05:00:30.026Z,1010.27
2018-07-26T05:02:22.950Z,1010.30
2018-07-26T05:03:22.975Z,1010.31
2018-07-26T05:05:15.921Z,1010.33
2018-07-26T05:06:15.927Z,1010.36
2018-07-26T05:08:08.869Z,1010.37
2018-07-26T05:09:08.879Z,1010.37
2018-07-26T05:11:01.822Z,1010.41
2018-07-26T05:12:01.832Z,1010.43
2018-07-26T05:13:54.817Z,1010.40
2018-07-26T05:14:54.789Z,1010.43
2018-07-26T05:16:47.727Z,1010.46
2018-07-26T05:17:47.736Z,1010.47
2018-07-26T05:19:40.678Z,1010.47
2018-07-26T05:20:40.687Z,1010.49
2018-07-26T05:22:33.611Z,1010.44
2018-07-26T05:23:33.638Z,1010.44
2018-07-26T05:25:26.650Z,1010.41
2018-07-26T05:26:26.591Z,1010.44
2018-07-26T05:28:19.580Z,1010.44
2018-07-26T05:29:19.548Z,1010.44
2018-07-26T05:31:12.496Z,1010.44
2018-07-26T05:32:12.506Z,1010.46
2018-07-26T05:34:05.436Z,1010.46
2018-07-26T05:35:05.462Z,1010.49
2018-07-26T05:36:58.418Z,1010.51
2018-07-26T05:37:58.424Z,1010.53
2018-07-26T05:39:51.357Z,1010.54
2018-07-26T05:40:51.386Z,1010.57
2018-07-26T05:42:44.342Z,1010.58
2018-07-26T05:43:44.360Z,1010.60
2018-07-26T05:45:37.304Z,1010.57
2018-07-26T05:46:37.316Z,1010.58
2018-07-26T05:48:30.248Z,1010.60
2018-07-26T05:49:30.280Z,1010.60
2018-07-26T05:51:23.234Z,1010.58
2018-07-26T05:52:23.246Z,1010.59
2018-07-26T05:54:16.341Z,1010.58
2018-07-26T05:55:16.376Z,1010.60
2018-07-26T05:57:09.335Z,1010.61
2018-07-26T05:58:09.348Z,1010.64
2018-07-26T06:00:02.363Z,1010.67
2018-07-26T06:01:02.357Z,1010.69
2018-07-26T06:02:55.411Z,1010.68
2018-07-26T06:03:55.428Z,1010.71
2018-07-26T06:05:48.961Z,1010.69
2018-07-26T06:06:48.999Z,1010.73
2018-07-26T06:08:42.039Z,1010.70
2018-07-26T06:09:42.088Z,1010.77
2018-07-26T06:11:35.093Z,1010.74
2018-07-26T06:12:35.110Z,1010.74
2018-07-26T06:14:28.130Z,1010.73
2018-07-26T06:15:28.164Z,1010.73
2018-07-26T06:17:21.717Z,1010.69
2018-07-26T06:18:21.736Z,1010.69
2018-07-26T06:20:14.754Z,1010.72
2018-07-26T06:21:14.791Z,1010.74
2018-07-26T06:23:07.832Z,1010.79
2018-07-26T06:24:07.847Z,1010.74
2018-07-26T06:26:00.866Z,1010.77
2018-07-26T06:27:00.903Z,1010.77
2018-07-26T06:28:53.943Z,1010.73
2018-07-26T06:29:53.962Z,1010.72
2018-07-26T06:31:47.428Z,1010.75
2018-07-26T06:32:47.436Z,1010.77
2018-07-26T06:34:40.870Z,1010.73
2018-07-26T06:35:40.908Z,1010.72
2018-07-26T06:37:33.868Z,1010.69
2018-07-26T06:38:33.889Z,1010.70
2018-07-26T06:40:26.837Z,1010.70
2018-07-26T06:41:26.873Z,1010.73
2018-07-26T06:43:20.828Z,1010.74
2018-07-26T06:44:20.849Z,1010.73
2018-07-26T06:46:13.793Z,1010.75
2018-07-26T06:47:13.831Z,1010.76
2018-07-26T06:49:06.797Z,1010.72
2018-07-26T06:50:06.818Z,1010.74
2018-07-26T06:51:59.761Z,1010.73
2018-07-26T06:52:59.805Z,1010.72
2018-07-26T06:54:52.764Z,1010.71
2018-07-26T06:55:52.781Z,1010.72
2018-07-26T06:57:45.724Z,1010.76
2018-07-26T06:58:45.765Z,1010.76
2018-07-26T07:00:38.763Z,1010.74
2018-07-26T07:01:38.752Z,1010.77
2018-07-26T07:03:31.714Z,1010.74
2018-07-26T07:04:31.729Z,1010.74
2018-07-26T07:06:25.167Z,1010.74
2018-07-26T07:07:25.205Z,1010.74
2018-07-26T07:09:18.168Z,1010.76
2018-07-26T07:10:18.191Z,1010.74
2018-07-26T07:12:11.135Z,1010.82
2018-07-26T07:13:11.173Z,1010.80
2018-07-26T07:15:04.142Z,1010.84
2018-07-26T07:16:04.160Z,1010.77
2018-07-26T07:17:57.111Z,1010.75
2018-07-26T07:18:57.149Z,1010.77
2018-07-26T07:20:50.115Z,1010.72
2018-07-26T07:21:50.134Z,1010.73
2018-07-26T07:23:43.081Z,1010.72
2018-07-26T07:24:43.121Z,1010.71
2018-07-26T07:26:37.078Z,1010.69
2018-07-26T07:27:37.100Z,1010.73
2018-07-26T07:29:30.064Z,1010.71
2018-07-26T07:30:30.084Z,1010.72
2018-07-26T07:32:23.025Z,1010.71
2018-07-26T07:33:23.062Z,1010.72
2018-07-26T07:35:16.024Z,1010.71
2018-07-26T07:36:16.040Z,1010.71
2018-07-26T07:38:08.979Z,1010.71
2018-07-26T07:39:09.015Z,1010.69
2018-07-26T07:41:01.973Z,1010.73
2018-07-26T07:42:01.992Z,1010.75
2018-07-26T07:43:54.925Z,1010.75
2018-07-26T07:44:54.961Z,1010.72
2018-07-26T07:46:48.414Z,1010.75
2018-07-26T07:47:48.430Z,1010.76
2018-07-26T07:49:41.392Z,1010.74
2018-07-26T07:50:41.407Z,1010.77
2018-07-26T07:52:34.347Z,1010.75
2018-07-26T07:53:34.380Z,1010.78
2018-07-26T07:55:27.338Z,1010.79
2018-07-26T07:56:27.351Z,1010.76
2018-07-26T07:58:20.291Z,1010.76
2018-07-26T07:59:20.327Z,1010.77
2018-07-26T08:01:13.286Z,1010.79
2018-07-26T08:02:13.301Z,1010.78
2018-07-26T08:04:06.774Z,1010.81
2018-07-26T08:05:06.766Z,1010.79
2018-07-26T08:06:59.727Z,1010.80
2018-07-26T08:07:59.743Z,1010.78
2018-07-26T08:09:52.701Z,1010.80
2018-07-26T08:10:52.720Z,1010.80
2018-07-26T08:12:45.760Z,1010.79
2018-07-26T08:13:45.689Z,1010.77
2018-07-26T08:15:40.138Z,1010.77
2018-07-26T08:16:40.153Z,1010.78
2018-07-26T08:18:33.586Z,1010.77
2018-07-26T08:19:33.619Z,1010.72
2018-07-26T08:21:26.591Z,1010.76
2018-07-26T08:22:26.588Z,1010.76
2018-07-26T08:24:19.521Z,1010.77
2018-07-26T08:25:19.556Z,1010.81
2018-07-26T08:27:12.507Z,1010.74
2018-07-26T08:28:12.524Z,1010.77
2018-07-26T08:30:05.461Z,1010.76
2018-07-26T08:31:05.497Z,1010.74
2018-07-26T08:32:58.453Z,1010.75
2018-07-26T08:33:58.465Z,1010.75
2018-07-26T08:35:51.450Z,1010.75
2018-07-26T08:36:51.439Z,1010.75
2018-07-26T08:38:44.376Z,1010.74
2018-07-26T08:39:44.411Z,1010.75
2018-07-26T08:41:37.369Z,1010.74
2018-07-26T08:42:37.381Z,1010.76
2018-07-26T08:44:30.332Z,1010.78
2018-07-26T08:45:30.367Z,1010.74
2018-07-26T08:47:23.442Z,1010.72
2018-07-26T08:48:23.423Z,1010.77
2018-07-26T08:50:16.472Z,1010.74
2018-07-26T08:51:17.424Z,1010.74
2018-07-26T08:53:09.521Z,1010.76
2018-07-26T08:54:09.574Z,1010.74
2018-07-26T08:56:02.560Z,1010.68
2018-07-26T08:57:02.593Z,1010.68
2018-07-26T08:58:55.657Z,1010.68
2018-07-26T08:59:55.649Z,1010.65
2018-07-26T09:01:48.673Z,1010.63
2018-07-26T09:02:48.758Z,1010.66
2018-07-26T09:04:41.745Z,1010.62
2018-07-26T09:05:41.761Z,1010.64
2018-07-26T09:07:34.785Z,1010.61
2018-07-26T09:08:34.821Z,1010.59
2018-07-26T09:10:27.858Z,1010.60
2018-07-26T09:11:27.878Z,1010.65
2018-07-26T09:13:20.988Z,1010.60
2018-07-26T09:14:20.936Z,1010.55
2018-07-26T09:16:14.480Z,1010.60
2018-07-26T09:17:14.515Z,1010.59
2018-07-26T09:19:07.537Z,1010.56
2018-07-26T09:20:07.559Z,1010.60
2018-07-26T09:22:00.579Z,1010.61
2018-07-26T09:23:00.615Z,1010.72
2018-07-26T09:24:53.653Z,1010.57
2018-07-26T09:25:53.667Z,1010.59
2018-07-26T09:27:46.736Z,1010.65
2018-07-26T09:28:46.760Z,1010.63
2018-07-26T09:30:39.800Z,1010.57
2018-07-26T09:31:39.780Z,1010.54
2018-07-26T09:33:32.823Z,1010.63
2018-07-26T09:34:32.840Z,1010.57
2018-07-26T09:36:25.859Z,1010.54
2018-07-26T09:37:25.893Z,1010.51
2018-07-26T09:39:18.933Z,1010.58
2018-07-26T09:40:18.949Z,1010.53
2018-07-26T09:42:11.974Z,1010.51
2018-07-26T09:43:12.008Z,1010.47
2018-07-26T09:45:05.046Z,1010.52
2018-07-26T09:46:05.063Z,1010.49
2018-07-26T09:47:58.086Z,1010.55
2018-07-26T09:48:58.123Z,1010.48
2018-07-26T09:50:51.669Z,1010.42
2018-07-26T09:51:51.708Z,1010.47
2018-07-26T09:53:44.712Z,1010.41
2018-07-26T09:54:44.809Z,1010.45
2018-07-26T09:56:37.785Z,1010.44
2018-07-26T09:57:37.798Z,1010.41
2018-07-26T09:59:30.842Z,1010.43
2018-07-26T10:00:30.854Z,1010.43
2018-07-26T10:02:23.811Z,1010.40
2018-07-26T10:03:23.830Z,1010.39
2018-07-26T10:05:16.786Z,1010.35
2018-07-26T10:06:16.804Z,1010.35
2018-07-26T10:08:09.739Z,1010.31
2018-07-26T10:09:09.772Z,1010.41
2018-07-26T10:11:02.731Z,1010.33
2018-07-26T10:12:02.746Z,1010.35
2018-07-26T10:13:55.719Z,1010.31
2018-07-26T10:14:55.756Z,1010.30
2018-07-26T10:16:48.678Z,1010.32
2018-07-26T10:17:48.692Z,1010.31
2018-07-26T10:19:43.123Z,1010.26
2018-07-26T10:20:43.158Z,1010.24
2018-07-26T10:22:36.119Z,1010.27
2018-07-26T10:23:36.133Z,1010.28
2018-07-26T10:25:29.108Z,1010.25
2018-07-26T10:26:29.104Z,1010.24
2018-07-26T10:28:22.537Z,1010.28
2018-07-26T10:29:22.571Z,1010.27
2018-07-26T10:31:17.024Z,1010.25
2018-07-26T10:32:17.042Z,1010.24
2018-07-26T10:34:09.978Z,1010.26
2018-07-26T10:35:10.014Z,1010.18
2018-07-26T10:37:02.974Z,1010.21
2018-07-26T10:38:03.020Z,1010.17
2018-07-26T10:39:55.947Z,1010.19
2018-07-26T10:40:55.962Z,1010.18
2018-07-26T10:42:48.921Z,1010.21
2018-07-26T10:43:48.932Z,1010.26
2018-07-26T10:45:42.362Z,1010.20
2018-07-26T10:46:42.397Z,1010.16
2018-07-26T10:48:35.355Z,1010.18
2018-07-26T10:49:35.367Z,1010.22
2018-07-26T10:51:28.315Z,1010.20
2018-07-26T10:52:28.345Z,1010.18
2018-07-26T10:54:21.304Z,1010.10
2018-07-26T10:55:21.319Z,1010.08
2018-07-26T10:57:14.766Z,1010.12
2018-07-26T10:58:14.783Z,1010.11
2018-07-26T11:00:15.282Z,1010.26
2018-07-26T11:01:15.766Z,1010.11
2018-07-26T11:03:08.208Z,1010.08
2018-07-26T11:04:08.224Z,1010.12
2018-07-26T11:06:01.183Z,1010.00
2018-07-26T11:07:01.200Z,1010.04
2018-07-26T11:08:54.157Z,1010.12
2018-07-26T11:09:54.208Z,1010.05
2018-07-26T11:11:47.111Z,1010.10
2018-07-26T11:12:47.145Z,1010.12
2018-07-26T11:14:50.659Z,1010.06
2018-07-26T11:15:40.115Z,1010.06
2018-07-26T11:17:33.564Z,1010.14
2018-07-26T11:18:33.583Z,1010.07
2018-07-26T11:20:27.513Z,1010.02
2018-07-26T11:21:27.547Z,1010.05
2018-07-26T11:23:20.998Z,1010.03
2018-07-26T11:24:21.068Z,1009.96
2018-07-26T11:26:13.950Z,1010.01
2018-07-26T11:27:13.985Z,1009.96
2018-07-26T11:29:06.944Z,1009.96
2018-07-26T11:30:06.956Z,1010.00
2018-07-26T11:32:00.392Z,1009.94
2018-07-26T11:33:00.424Z,1009.95
2018-07-26T11:34:53.390Z,1009.94
2018-07-26T11:35:53.465Z,1009.94
2018-07-26T11:37:46.390Z,1010.00
2018-07-26T11:38:46.380Z,1009.98
2018-07-26T11:40:39.341Z,1009.99
2018-07-26T11:41:39.356Z,1009.95
2018-07-26T11:43:32.336Z,1009.94
2018-07-26T11:44:32.329Z,1009.95
2018-07-26T11:46:25.270Z,1009.91
2018-07-26T11:47:25.305Z,1009.92
2018-07-26T11:49:18.264Z,1009.89
2018-07-26T11:50:18.280Z,1009.86
2018-07-26T11:52:11.729Z,1009.94
2018-07-26T11:53:11.758Z,1009.84
2018-07-26T11:55:04.713Z,1009.86
2018-07-26T11:56:04.728Z,1009.96
2018-07-26T11:57:57.665Z,1009.88
2018-07-26T11:58:57.701Z,1009.81
2018-07-26T12:00:50.659Z,1009.76
2018-07-26T12:01:50.669Z,1009.77
2018-07-26T12:03:43.614Z,1009.80
2018-07-26T12:04:43.649Z,1009.71
2018-07-26T12:06:36.613Z,1009.78
2018-07-26T12:07:36.626Z,1009.77
2018-07-26T12:09:29.597Z,1009.69
2018-07-26T12:10:29.598Z,1009.70
2018-07-26T12:12:22.538Z,1009.68
2018-07-26T12:13:22.575Z,1009.77
2018-07-26T12:15:15.534Z,1009.71
2018-07-26T12:16:15.547Z,1009.74
2018-07-26T12:18:08.491Z,1009.69
2018-07-26T12:19:08.530Z,1009.71
2018-07-26T12:21:01.490Z,1009.68
2018-07-26T12:22:01.503Z,1009.67
2018-07-26T12:23:54.441Z,1009.62
2018-07-26T12:24:54.481Z,1009.71
2018-07-26T12:26:47.447Z,1009.66
2018-07-26T12:27:47.447Z,1009.61
2018-07-26T12:29:40.385Z,1009.62
2018-07-26T12:30:40.423Z,1009.55
2018-07-26T12:32:33.381Z,1009.56
2018-07-26T12:33:33.397Z,1009.61
2018-07-26T12:35:26.359Z,1009.59
2018-07-26T12:36:26.372Z,1009.53
2018-07-26T12:38:19.313Z,1009.47
2018-07-26T12:39:19.346Z,1009.51
2018-07-26T12:41:12.325Z,1009.48
2018-07-26T12:42:12.321Z,1009.53
2018-07-26T12:44:05.256Z,1009.48
2018-07-26T12:45:05.291Z,1009.54
2018-07-26T12:46:58.741Z,1009.55
2018-07-26T12:47:58.760Z,1009.51
2018-07-26T12:49:52.187Z,1009.51
2018-07-26T12:50:52.224Z,1009.51
2018-07-26T12:52:45.182Z,1009.43
2018-07-26T12:53:45.199Z,1009.39
2018-07-26T12:55:38.188Z,1009.39
2018-07-26T12:56:38.176Z,1009.35
2018-07-26T12:58:31.135Z,1009.34
2018-07-26T12:59:31.150Z,1009.32
2018-07-26T13:01:25.616Z,1009.28
2018-07-26T13:02:25.616Z,1009.31
2018-07-26T13:04:18.554Z,1009.31
2018-07-26T13:05:18.588Z,1009.32
2018-07-26T13:07:11.559Z,1009.26
2018-07-26T13:08:11.563Z,1009.26
2018-07-26T13:10:04.998Z,1009.26
2018-07-26T13:11:05.031Z,1009.40
2018-07-26T13:12:58.480Z,1009.26
2018-07-26T13:13:58.498Z,1009.21
2018-07-26T13:15:51.437Z,1009.25
2018-07-26T13:16:51.478Z,1009.27
2018-07-26T13:18:44.926Z,1009.24
2018-07-26T13:19:44.941Z,1009.25
2018-07-26T13:21:38.381Z,1009.22
2018-07-26T13:22:38.416Z,1009.21
2018-07-26T13:24:31.373Z,1009.20
2018-07-26T13:25:31.389Z,1009.21
2018-07-26T13:27:24.346Z,1009.23
2018-07-26T13:28:24.364Z,1009.17
2018-07-26T13:30:17.298Z,1009.14
2018-07-26T13:31:17.333Z,1009.12
2018-07-26T13:33:10.292Z,1009.18
2018-07-26T13:34:10.309Z,1009.22
2018-07-26T13:36:04.794Z,1009.18
2018-07-26T13:37:04.772Z,1009.13
2018-07-26T13:38:57.730Z,1009.22
2018-07-26T13:39:57.811Z,1009.09
2018-07-26T13:41:51.223Z,1009.10
2018-07-26T13:42:51.216Z,1009.15
2018-07-26T13:44:44.178Z,1009.06
2018-07-26T13:45:44.190Z,1009.08
2018-07-26T13:47:38.148Z,1009.16
2018-07-26T13:48:38.159Z,1009.07
2018-07-26T13:50:31.096Z,1009.01
2018-07-26T13:51:31.132Z,1009.07
2018-07-26T13:53:24.094Z,1009.05
2018-07-26T13:54:24.109Z,1009.04
2018-07-26T13:56:18.042Z,1009.02
2018-07-26T13:57:18.079Z,1009.01
2018-07-26T13:59:11.039Z,1008.99
2018-07-26T14:00:11.054Z,1008.97
2018-07-26T14:02:04.001Z,1008.92
2018-07-26T14:03:04.031Z,1008.96
2018-07-26T14:04:56.990Z,1008.94
2018-07-26T14:05:57.007Z,1009.01
2018-07-26T14:07:49.945Z,1008.93
2018-07-26T14:08:49.980Z,1008.95
2018-07-26T14:10:42.941Z,1008.94
2018-07-26T14:11:42.955Z,1008.86
2018-07-26T14:13:36.406Z,1008.94
2018-07-26T14:14:36.424Z,1008.92
2018-07-26T14:16:29.362Z,1008.93
2018-07-26T14:17:29.399Z,1008.90
2018-07-26T14:19:22.360Z,1008.88
2018-07-26T14:20:22.373Z,1008.90
2018-07-26T14:22:15.821Z,1008.90
2018-07-26T14:23:15.845Z,1008.85
2018-07-26T14:25:08.804Z,1008.84
2018-07-26T14:26:08.816Z,1008.88
2018-07-26T14:28:01.755Z,1008.95
2018-07-26T14:29:01.790Z,1008.88
2018-07-26T14:30:54.749Z,1008.79
2018-07-26T14:31:54.767Z,1008.83
2018-07-26T14:33:48.198Z,1008.83
2018-07-26T14:34:48.234Z,1008.84
2018-07-26T14:36:41.194Z,1008.80
2018-07-26T14:37:41.210Z,1008.80
2018-07-26T14:39:34.660Z,1008.73
2018-07-26T14:40:34.678Z,1008.75
2018-07-26T14:42:27.648Z,1008.67
2018-07-26T14:43:27.683Z,1008.67
2018-07-26T14:45:21.268Z,1008.67
2018-07-26T14:46:21.249Z,1008.62
2018-07-26T14:48:14.275Z,1008.65
2018-07-26T14:49:14.306Z,1008.65
2018-07-26T14:51:07.348Z,1008.70
2018-07-26T14:52:07.362Z,1008.64
2018-07-26T14:54:01.826Z,1008.59
2018-07-26T14:55:01.855Z,1008.56
2018-07-26T14:56:54.894Z,1008.63
2018-07-26T14:57:54.908Z,1008.71
2018-07-26T14:59:47.948Z,1008.62
2018-07-26T15:00:47.976Z,1008.70
2018-07-26T15:02:40.991Z,1008.58
2018-07-26T15:03:41.022Z,1008.63
2018-07-26T15:05:34.063Z,1008.69
2018-07-26T15:06:34.085Z,1008.70
2018-07-26T15:08:28.020Z,1008.62
2018-07-26T15:09:28.055Z,1008.65
2018-07-26T15:11:21.097Z,1008.54
2018-07-26T15:12:21.112Z,1008.53
2018-07-26T15:14:14.196Z,1008.52
2018-07-26T15:15:14.166Z,1008.54
2018-07-26T15:17:07.242Z,1008.73
2018-07-26T15:18:07.221Z,1008.66
2018-07-26T15:20:00.283Z,1008.64
2018-07-26T15:21:00.311Z,1008.65
2018-07-26T15:22:54.951Z,1008.62
2018-07-26T15:23:54.900Z,1008.59
2018-07-26T15:25:48.428Z,1008.57
2018-07-26T15:26:48.443Z,1008.54
2018-07-26T15:28:41.464Z,1008.58
2018-07-26T15:29:41.502Z,1008.59
2018-07-26T15:31:35.051Z,1008.60
2018-07-26T15:32:35.067Z,1008.58
2018-07-26T15:34:28.280Z,1008.54
2018-07-26T15:35:28.241Z,1008.60
2018-07-26T15:37:21.268Z,1008.50
2018-07-26T15:38:21.281Z,1008.54
2018-07-26T15:40:14.814Z,1008.56
2018-07-26T15:41:14.849Z,1008.60
2018-07-26T15:43:07.902Z,1008.53
2018-07-26T15:46:00.945Z,1008.50
2018-07-26T15:47:01.034Z,1008.48
2018-07-26T15:48:54.072Z,1008.49
2018-07-26T15:49:54.017Z,1008.50
2018-07-26T15:51:47.057Z,1008.40
2018-07-26T15:52:47.075Z,1008.45
2018-07-26T15:54:40.190Z,1008.44
2018-07-26T15:55:40.195Z,1008.48
2018-07-26T15:57:33.169Z,1008.44
2018-07-26T15:58:33.187Z,1008.48
2018-07-26T16:00:26.211Z,1008.45
2018-07-26T16:01:26.246Z,1008.43
2018-07-26T16:03:19.286Z,1008.43
2018-07-26T16:04:19.300Z,1008.37
2018-07-26T16:06:12.338Z,1008.45
2018-07-26T16:07:12.354Z,1008.35
2018-07-26T16:09:06.298Z,1008.51
2018-07-26T16:10:06.335Z,1008.54
2018-07-26T16:11:59.887Z,1008.43
2018-07-26T16:12:59.903Z,1008.49
2018-07-26T16:14:52.923Z,1008.51
2018-07-26T16:15:52.957Z,1008.52
2018-07-26T16:17:46.089Z,1008.45
2018-07-26T16:18:46.016Z,1008.36
2018-07-26T16:20:39.043Z,1008.39
2018-07-26T16:21:39.068Z,1008.43
2018-07-26T16:23:32.623Z,1008.48
2018-07-26T16:24:32.637Z,1008.48
2018-07-26T16:26:25.679Z,1008.51
2018-07-26T16:27:25.695Z,1008.44
2018-07-26T16:29:18.716Z,1008.42
2018-07-26T16:30:18.751Z,1008.39
2018-07-26T16:32:11.904Z,1008.41
2018-07-26T16:33:11.812Z,1008.45
2018-07-26T16:35:04.832Z,1008.45
2018-07-26T16:36:04.871Z,1008.46
2018-07-26T16:37:57.904Z,1008.45
2018-07-26T16:38:57.918Z,1008.44
2018-07-26T16:40:51.454Z,1008.48
2018-07-26T16:41:51.487Z,1008.42
2018-07-26T16:43:46.115Z,1008.41
2018-07-26T16:44:46.057Z,1008.39
2018-07-26T16:46:39.121Z,1008.33
2018-07-26T16:47:39.140Z,1008.33
2018-07-26T16:49:42.089Z,1008.39
2018-07-26T16:50:42.122Z,1008.36
2018-07-26T16:52:35.109Z,1008.38
2018-07-26T16:53:35.098Z,1008.48
2018-07-26T16:55:28.030Z,1008.39
2018-07-26T16:56:28.065Z,1008.34
2018-07-26T16:58:21.223Z,1008.38
2018-07-26T16:59:21.083Z,1008.35
2018-07-26T17:01:14.019Z,1008.37
2018-07-26T17:02:14.053Z,1008.38
2018-07-26T17:04:07.012Z,1008.37
2018-07-26T17:05:07.022Z,1008.33
2018-07-26T17:06:59.981Z,1008.34
2018-07-26T17:07:59.991Z,1008.37
2018-07-26T17:09:52.936Z,1008.34
2018-07-26T17:10:52.968Z,1008.40
2018-07-26T17:12:45.984Z,1008.37
2018-07-26T17:13:45.966Z,1008.36
2018-07-26T17:15:38.892Z,1008.45
2018-07-26T17:16:38.953Z,1008.42
2018-07-26T17:18:31.885Z,1008.42
2018-07-26T17:19:31.897Z,1008.47
2018-07-26T17:21:24.864Z,1008.37
2018-07-26T17:22:24.870Z,1008.36
2018-07-26T17:24:17.823Z,1008.45
2018-07-26T17:25:17.838Z,1008.43
2018-07-26T17:27:10.850Z,1008.40
2018-07-26T17:28:10.817Z,1008.42